createdAt,value
2024-02-14T00:01:21.884Z,2.50
2024-02-14T00:16:24.255Z,2.40
2024-02-14T00:31:26.358Z,2.60
2024-02-14T00:46:28.848Z,2.60
2024-02-14T01:01:31.352Z,2.50
2024-02-14T01:16:33.512Z,2.40
2024-02-14T01:31:35.953Z,2.30
2024-02-14T01:46:37.990Z,2.30
2024-02-14T02:01:41.013Z,2.20
2024-02-14T02:16:43.606Z,2.30
2024-02-14T02:31:46.065Z,2.20
2024-02-14T02:46:48.131Z,2.20
2024-02-14T03:01:50.984Z,2.10
2024-02-14T03:16:53.760Z,2.20
2024-02-14T03:31:58.808Z,2.20
2024-02-14T03:47:01.584Z,2.20
2024-02-14T04:02:03.920Z,2.30
2024-02-14T04:17:09.318Z,2.20
2024-02-14T04:32:11.318Z,2.20
2024-02-14T04:47:13.461Z,2.10
2024-02-14T05:02:15.826Z,2.10
2024-02-14T05:17:18.040Z,2.10
2024-02-14T05:32:20.141Z,2.00
2024-02-14T05:47:22.675Z,2.00
2024-02-14T06:02:24.839Z,2.00
2024-02-14T06:17:29.671Z,1.90
2024-02-14T06:32:31.998Z,2.00
2024-02-14T06:47:34.178Z,2.00
2024-02-14T07:02:36.200Z,2.10
2024-02-14T07:17:40.129Z,2.10
2024-02-14T07:32:42.320Z,2.00
2024-02-14T07:47:44.521Z,2.00
2024-02-14T08:02:46.986Z,1.80
2024-02-14T08:17:49.860Z,1.80
2024-02-14T08:32:53.559Z,1.70
2024-02-14T08:47:56.701Z,1.50
2024-02-14T09:03:01.826Z,1.70
2024-02-14T09:18:04.988Z,1.50
2024-02-14T09:33:07.531Z,1.30
2024-02-14T09:48:11.137Z,1.40
2024-02-14T10:03:13.375Z,1.50
2024-02-14T10:18:18.393Z,1.50
2024-02-14T10:33:27.690Z,1.60
2024-02-14T10:48:36.426Z,1.60
2024-02-14T11:03:38.958Z,1.60
2024-02-14T11:18:41.614Z,1.70
2024-02-14T11:33:45.615Z,1.80
2024-02-14T11:48:49.051Z,1.80
2024-02-14T12:03:52.211Z,1.80
2024-02-14T12:19:17.895Z,1.80
2024-02-14T12:34:25.352Z,2.00
2024-02-14T12:49:28.188Z,2.00
2024-02-14T13:04:30.263Z,1.90
2024-02-14T13:19:32.528Z,2.00
2024-02-14T13:34:35.471Z,2.00
2024-02-14T13:49:38.539Z,2.10
2024-02-14T14:04:40.928Z,2.10
2024-02-14T14:19:42.916Z,2.00
2024-02-14T14:34:45.157Z,2.10
2024-02-14T14:49:47.316Z,2.10
2024-02-14T15:04:50.005Z,2.10
2024-02-14T15:19:52.611Z,2.20
2024-02-14T15:34:54.676Z,2.10
2024-02-14T15:49:57.018Z,2.20
2024-02-14T16:04:59.512Z,2.10
2024-02-14T16:20:01.635Z,2.10
2024-02-14T16:35:04.643Z,2.00
2024-02-14T16:50:08.907Z,2.00
2024-02-14T17:05:11.345Z,2.00
2024-02-14T17:20:13.814Z,2.00
2024-02-14T17:35:16.606Z,1.90
2024-02-14T17:50:18.750Z,1.80
2024-02-14T18:05:21.793Z,1.80
2024-02-14T18:20:24.599Z,1.80
2024-02-14T18:35:26.658Z,1.60
2024-02-14T18:50:28.651Z,1.60
2024-02-14T19:05:30.797Z,1.60
2024-02-14T19:20:32.964Z,1.60
2024-02-14T19:35:35.328Z,1.60
2024-02-14T19:50:37.485Z,1.60
2024-02-14T20:05:40.650Z,1.60
2024-02-14T20:20:43.780Z,1.50
2024-02-14T20:35:45.873Z,1.50
2024-02-14T20:50:48.603Z,1.30
2024-02-14T21:05:50.831Z,1.30
2024-02-14T21:20:52.915Z,1.30
2024-02-14T21:35:58.341Z,1.40
2024-02-14T21:51:04.819Z,1.20
2024-02-14T22:06:07.434Z,1.10
2024-02-14T22:21:09.762Z,1.20
2024-02-14T22:36:12.033Z,1.10
2024-02-14T22:51:14.199Z,1.10
2024-02-14T23:06:16.748Z,1.10
2024-02-14T23:21:21.765Z,1.00
2024-02-14T23:36:24.580Z,1.00
2024-02-14T23:51:27.625Z,1.00
